Time;durP1;ratioP1;P1;durP2;ratioP2;P2;SDS_P1;SDS_P2;PMS_P1;PMS_P2;Temp;Humidity;BMP_temperature;BMP_pressure;BME280_temperature;BME280_humidity;BME280_pressure;Samples;Min_cycle;Max_cycle;Signal;HPM_P1;HPM_P2
2023/11/22 05:00:39;;;;;;;1.33;1.23;;;-0.70;97.30;;;;;;5816749;23;21473;-91
2023/11/22 05:03:04;;;;;;;1.60;1.50;;;-0.80;97.30;;;;;;4895472;29;20460;-89
2023/11/22 05:05:30;;;;;;;1.50;1.40;;;-0.80;97.30;;;;;;4914149;29;20196;-88
2023/11/22 05:07:55;;;;;;;1.40;1.30;;;-0.80;97.30;;;;;;4898033;29;20227;-89
2023/11/22 05:10:21;;;;;;;1.27;1.17;;;-0.80;97.30;;;;;;4913979;29;20208;-88
2023/11/22 05:12:47;;;;;;;7.10;2.13;;;-0.80;97.30;;;;;;4911293;29;20243;-88
2023/11/22 05:15:14;;;;;;;2.73;2.53;;;-0.80;97.30;;;;;;4913936;29;20207;-89
2023/11/22 05:17:39;;;;;;;1.30;1.20;;;-0.90;97.30;;;;;;4900801;29;20180;-86
2023/11/22 05:20:09;;;;;;;4.30;1.93;;;-0.90;97.30;;;;;;4897841;29;20480;-88
2023/11/22 05:22:35;;;;;;;2.63;2.43;;;-0.90;97.30;;;;;;4893737;29;20968;-91
2023/11/22 05:25:00;;;;;;;1.40;1.30;;;-0.90;97.30;;;;;;4913358;29;20452;-88
2023/11/22 05:27:26;;;;;;;1.60;1.50;;;-0.90;97.30;;;;;;4897099;29;20463;-88
2023/11/22 05:29:51;;;;;;;1.33;1.23;;;-1.00;97.30;;;;;;4903835;29;20196;-90
2023/11/22 05:32:17;;;;;;;2.03;1.90;;;-0.90;97.30;;;;;;4897047;29;20268;-89
2023/11/22 05:34:42;;;;;;;1.63;1.40;;;-1.00;97.30;;;;;;4903965;29;20268;-88
2023/11/22 05:37:08;;;;;;;4.47;2.80;;;-1.00;97.30;;;;;;4914294;29;20719;-89
2023/11/22 05:39:34;;;;;;;3.33;3.10;;;-1.00;97.30;;;;;;4895755;29;21310;-89
2023/11/22 05:42:00;;;;;;;1.50;1.40;;;-1.00;97.30;;;;;;4896588;29;20472;-92
2023/11/22 05:44:26;;;;;;;2.40;2.10;;;-1.00;97.30;;;;;;4913849;29;20184;-89
2023/11/22 05:46:52;;;;;;;1.30;1.20;;;-1.00;97.30;;;;;;4897902;29;20433;-89
2023/11/22 05:49:17;;;;;;;1.83;1.70;;;-1.00;97.30;;;;;;4896678;29;20181;-88
2023/11/22 05:51:43;;;;;;;2.13;1.80;;;-1.00;97.30;;;;;;4895517;29;20212;-88
2023/11/22 05:54:11;;;;;;;3.03;2.43;;;-1.00;97.30;;;;;;4901143;29;20605;-89
2023/11/22 05:56:37;;;;;;;1.50;1.40;;;-1.10;97.30;;;;;;4896520;29;20591;-88
2023/11/22 05:59:03;;;;;;;1.57;1.47;;;-1.10;97.30;;;;;;4901624;29;20439;-88
2023/11/22 06:01:30;;;;;;;2.83;1.80;;;-1.10;97.30;;;;;;4916912;29;20480;-88
2023/11/22 06:03:55;;;;;;;1.30;1.20;;;-1.10;97.30;;;;;;4901681;29;20936;-88
2023/11/22 06:06:22;;;;;;;1.20;1.10;;;-1.10;97.30;;;;;;4902831;29;20428;-89
2023/11/22 06:08:48;;;;;;;2.77;2.57;;;-1.00;97.30;;;;;;4917688;29;20203;-90
2023/11/22 06:11:15;;;;;;;3.13;2.63;;;-1.00;97.30;;;;;;4902544;29;20480;-89
2023/11/22 06:13:42;;;;;;;1.57;1.47;;;-1.00;97.30;;;;;;4902861;29;20431;-88
2023/11/22 06:16:09;;;;;;;1.50;1.40;;;-1.00;97.30;;;;;;4899905;29;20431;-88
2023/11/22 06:18:40;;;;;;;1.50;1.40;;;-1.00;97.30;;;;;;4906467;29;20930;-87
2023/11/22 06:21:08;;;;;;;1.90;1.80;;;-1.00;97.30;;;;;;4898501;29;20468;-88
2023/11/22 06:23:34;;;;;;;1.20;1.10;;;-0.90;97.30;;;;;;4900066;29;20564;-89
2023/11/22 06:26:00;;;;;;;2.40;1.33;;;-0.90;97.30;;;;;;4901500;29;20898;-90
2023/11/22 06:28:25;;;;;;;2.70;2.03;;;-0.80;97.30;;;;;;4899917;29;20353;-88
2023/11/22 06:30:51;;;;;;;1.30;1.20;;;-0.80;97.30;;;;;;4917031;29;20205;-87
2023/11/22 06:33:17;;;;;;;1.20;1.10;;;-0.90;97.30;;;;;;4906290;29;20184;-87
2023/11/22 06:35:42;;;;;;;5.20;3.37;;;-0.80;97.30;;;;;;4902395;29;20511;-90
2023/11/22 06:38:08;;;;;;;2.70;2.50;;;-0.80;97.30;;;;;;4901307;29;20240;-88
2023/11/22 06:40:34;;;;;;;1.60;1.50;;;-0.80;97.30;;;;;;4901254;29;20211;-88
2023/11/22 06:42:59;;;;;;;2.50;2.33;;;-0.80;97.30;;;;;;4899482;29;20854;-86
2023/11/22 06:45:25;;;;;;;1.10;1.00;;;-0.80;97.30;;;;;;4916998;29;20208;-89
2023/11/22 06:47:51;;;;;;;2.00;1.90;;;-0.80;97.30;;;;;;4916463;29;20184;-89
2023/11/22 06:50:17;;;;;;;2.23;2.03;;;-0.90;97.30;;;;;;4905569;29;20231;-88
2023/11/22 06:52:43;;;;;;;1.90;1.67;;;-0.90;97.30;;;;;;4904516;29;20209;-87
2023/11/22 06:55:09;;;;;;;2.07;1.93;;;-0.80;97.30;;;;;;4905582;29;20199;-88
2023/11/22 06:57:35;;;;;;;1.20;1.10;;;-0.90;97.30;;;;;;4916648;29;20431;-87
2023/11/22 07:00:04;;;;;;;1.67;1.57;;;-0.90;97.30;;;;;;4902767;29;20579;-88
2023/11/22 07:02:35;;;;;;;1.40;1.30;;;-0.90;97.30;;;;;;4896346;29;20881;-88
2023/11/22 07:05:03;;;;;;;1.60;1.50;;;-0.80;97.30;;;;;;4899243;29;20891;-88
2023/11/22 07:07:29;;;;;;;1.63;1.53;;;-0.90;97.30;;;;;;4899218;29;20421;-88
2023/11/22 07:09:58;;;;;;;4.10;1.73;;;-0.90;97.30;;;;;;4898770;29;20463;-87
2023/11/22 07:12:24;;;;;;;1.40;1.30;;;-0.90;97.30;;;;;;4915807;29;20204;-89
2023/11/22 07:14:49;;;;;;;2.60;2.17;;;-0.90;97.30;;;;;;4897922;29;20439;-87
2023/11/22 07:17:17;;;;;;;1.40;1.30;;;-0.90;97.30;;;;;;4899345;29;20939;-87
2023/11/22 07:19:46;;;;;;;2.27;2.07;;;-0.90;97.30;;;;;;4916005;29;20211;-90
2023/11/22 07:22:15;;;;;;;3.27;1.97;;;-0.80;97.30;;;;;;4899120;29;20440;-88
2023/11/22 07:24:47;;;;;;;1.27;1.17;;;-0.90;97.30;;;;;;4916108;29;20416;-90
2023/11/22 07:27:13;;;;;;;9.13;2.40;;;-0.80;97.30;;;;;;4913518;29;20440;-92
2023/11/22 07:29:43;;;;;;;7.30;2.53;;;-0.90;97.30;;;;;;4899064;29;20491;-88
2023/11/22 07:32:09;;;;;;;3.03;2.83;;;-0.80;97.30;;;;;;4898998;29;20452;-88
2023/11/22 07:34:36;;;;;;;6.17;2.60;;;-0.80;97.30;;;;;;4900850;29;20527;-89
2023/11/22 07:37:02;;;;;;;3.67;1.93;;;-0.80;97.30;;;;;;4898461;29;20452;-87
2023/11/22 07:39:28;;;;;;;1.47;1.43;;;-0.80;97.30;;;;;;4895440;29;20465;-89
2023/11/22 07:41:55;;;;;;;1.20;1.10;;;-0.70;97.30;;;;;;4898568;29;20448;-88
2023/11/22 07:44:21;;;;;;;8.13;1.80;;;-0.70;97.30;;;;;;4898780;29;20753;-87
2023/11/22 07:46:47;;;;;;;4.30;1.30;;;-0.80;97.30;;;;;;4900746;29;20428;-88
2023/11/22 07:49:13;;;;;;;1.13;1.03;;;-0.80;97.30;;;;;;4915624;29;20527;-87
2023/11/22 07:51:39;;;;;;;1.23;1.13;;;-0.80;97.30;;;;;;4900275;29;20213;-88
2023/11/22 07:54:05;;;;;;;2.53;2.37;;;-0.80;97.30;;;;;;4900839;29;20480;-87
2023/11/22 07:56:32;;;;;;;3.00;2.80;;;-0.70;97.30;;;;;;4915079;29;20471;-89
2023/11/22 07:58:58;;;;;;;1.43;1.33;;;-0.70;97.30;;;;;;4899507;29;20567;-88
2023/11/22 08:01:25;;;;;;;2.27;2.10;;;-0.80;97.30;;;;;;4915073;29;20491;-87
2023/11/22 08:03:51;;;;;;;2.30;1.90;;;-0.80;97.30;;;;;;4898194;29;20188;-87
2023/11/22 08:06:17;;;;;;;1.43;1.33;;;-0.70;97.30;;;;;;4903558;29;20427;-91
2023/11/22 08:08:45;;;;;;;2.03;1.90;;;-0.70;97.30;;;;;;4914981;29;20496;-87
2023/11/22 08:11:14;;;;;;;2.13;1.97;;;-0.70;97.30;;;;;;4897940;29;20484;-89
2023/11/22 08:13:44;;;;;;;1.57;1.47;;;-0.80;97.30;;;;;;4903039;29;20824;-90
2023/11/22 08:16:10;;;;;;;7.90;2.03;;;-0.80;97.30;;;;;;4914551;29;20810;-88
2023/11/22 08:18:36;;;;;;;1.20;1.10;;;-0.80;97.30;;;;;;4900253;29;20449;-88
2023/11/22 08:21:02;;;;;;;1.30;1.20;;;-0.80;97.30;;;;;;4914698;29;20990;-89
2023/11/22 08:23:27;;;;;;;6.37;2.30;;;-0.80;97.30;;;;;;4902512;29;20276;-88
2023/11/22 08:25:53;;;;;;;1.30;1.20;;;-0.70;97.30;;;;;;4897693;29;20220;-88
2023/11/22 08:28:18;;;;;;;1.43;1.33;;;-0.80;97.30;;;;;;4898532;29;20280;-89
2023/11/22 08:30:44;;;;;;;1.33;1.23;;;-0.80;97.30;;;;;;4894138;29;20303;-90
2023/11/22 08:33:10;;;;;;;1.90;1.80;;;-0.80;97.30;;;;;;4896896;29;20192;-86
2023/11/22 08:35:36;;;;;;;1.53;1.43;;;-0.80;97.30;;;;;;4914297;29;20185;-87
2023/11/22 08:38:03;;;;;;;2.23;2.07;;;-0.80;97.30;;;;;;4913237;29;20204;-88
2023/11/22 08:40:29;;;;;;;1.30;1.20;;;-0.80;97.30;;;;;;4908994;29;20248;-87
2023/11/22 08:42:54;;;;;;;5.27;2.73;;;-0.80;97.30;;;;;;4904061;29;20433;-86
2023/11/22 08:45:20;;;;;;;1.83;1.73;;;-0.70;97.30;;;;;;4902825;29;20499;-88
2023/11/22 08:47:46;;;;;;;1.30;1.20;;;-0.80;97.30;;;;;;4899864;29;20288;-87
2023/11/22 08:50:11;;;;;;;5.53;2.50;;;-0.80;97.30;;;;;;4898955;29;20437;-89
2023/11/22 08:52:38;;;;;;;2.07;1.93;;;-0.70;97.30;;;;;;4932808;29;20258;-87
2023/11/22 08:55:07;;;;;;;1.63;1.60;;;-0.70;97.30;;;;;;4915067;29;20216;-87
2023/11/22 08:57:37;;;;;;;2.53;2.17;;;-0.70;97.30;;;;;;4902270;29;20511;-87
2023/11/22 09:00:08;;;;;;;1.67;1.57;;;-0.70;97.30;;;;;;4908824;29;20476;-87
2023/11/22 09:02:33;;;;;;;4.70;1.93;;;-0.60;97.30;;;;;;4916093;29;20815;-88
2023/11/22 09:04:59;;;;;;;2.40;2.20;;;-0.60;97.30;;;;;;4902541;29;20519;-87
2023/11/22 09:07:25;;;;;;;4.10;1.77;;;-0.50;97.30;;;;;;4915982;29;20199;-88
2023/11/22 09:09:51;;;;;;;3.40;3.20;;;-0.40;97.30;;;;;;4897262;29;20197;-87
2023/11/22 09:12:19;;;;;;;1.53;1.43;;;-0.30;97.30;;;;;;4905119;29;20451;-88
2023/11/22 09:14:45;;;;;;;1.30;1.20;;;-0.30;97.30;;;;;;4897250;29;20220;-89
2023/11/22 09:17:13;;;;;;;3.53;3.33;;;-0.20;97.30;;;;;;4895454;29;20440;-89
2023/11/22 09:19:39;;;;;;;2.23;1.50;;;-0.20;97.30;;;;;;4892209;29;20413;-88
2023/11/22 09:22:06;;;;;;;3.10;2.80;;;-0.20;97.30;;;;;;4915366;29;20441;-86
2023/11/22 09:24:32;;;;;;;9.47;2.20;;;-0.20;97.30;;;;;;4894525;29;20216;-88
2023/11/22 09:26:58;;;;;;;3.53;2.30;;;-0.10;97.30;;;;;;4894665;29;20465;-88
2023/11/22 09:29:23;;;;;;;1.93;1.83;;;-0.10;97.30;;;;;;4890916;29;20434;-90
2023/11/22 09:31:51;;;;;;;3.00;2.80;;;-0.10;97.30;;;;;;4895365;29;20430;-89
2023/11/22 09:34:17;;;;;;;2.57;2.37;;;0.00;97.30;;;;;;4913375;29;20663;-88
2023/11/22 09:36:43;;;;;;;15.73;3.93;;;0.00;97.30;;;;;;4898666;29;20515;-90
2023/11/22 09:39:09;;;;;;;1.90;1.70;;;0.00;97.30;;;;;;4917922;29;20309;-87
2023/11/22 09:41:36;;;;;;;5.97;2.37;;;0.10;97.30;;;;;;4897631;29;20555;-86
2023/11/22 09:44:02;;;;;;;2.87;2.67;;;0.00;97.30;;;;;;4907047;29;20189;-87
2023/11/22 09:46:29;;;;;;;1.60;1.50;;;0.00;97.30;;;;;;4917917;29;20432;-87
2023/11/22 09:48:57;;;;;;;17.03;3.13;;;0.00;97.30;;;;;;4918733;29;20172;-87
2023/11/22 09:51:28;;;;;;;19.87;2.70;;;0.00;97.30;;;;;;4914011;29;20452;-87
2023/11/22 09:54:00;;;;;;;5.53;4.07;;;0.10;97.30;;;;;;4908995;29;20420;-87
2023/11/22 09:56:27;;;;;;;3.77;3.57;;;0.20;97.30;;;;;;4891651;29;20767;-87
2023/11/22 09:58:55;;;;;;;2.33;2.13;;;0.20;97.30;;;;;;4915499;29;20781;-87
2023/11/22 10:01:22;;;;;;;3.10;2.90;;;0.20;97.30;;;;;;4904899;29;20495;-87
2023/11/22 10:03:48;;;;;;;1.57;1.47;;;0.30;97.30;;;;;;4905400;29;20965;-87
2023/11/22 10:06:14;;;;;;;4.23;3.53;;;0.30;97.30;;;;;;4916877;29;20428;-86
2023/11/22 10:08:40;;;;;;;2.50;2.23;;;0.40;97.30;;;;;;4897482;29;20452;-87
2023/11/22 10:11:07;;;;;;;7.23;2.53;;;0.50;97.30;;;;;;4895682;29;20484;-87
2023/11/22 10:13:33;;;;;;;2.17;2.00;;;0.50;97.30;;;;;;4893151;29;20974;-86
2023/11/22 10:16:14;;;;;;;3.73;3.30;;;0.50;97.30;;;;;;4911819;29;20473;-86
2023/11/22 10:18:42;;;;;;;5.80;2.90;;;0.40;97.30;;;;;;4896090;29;20484;-87
2023/11/22 10:21:18;;;;;;;2.33;2.13;;;0.50;97.30;;;;;;4897001;29;20483;-87
2023/11/22 10:23:44;;;;;;;6.20;2.83;;;0.50;97.30;;;;;;4903265;29;20424;-89
2023/11/22 10:26:09;;;;;;;1.77;1.67;;;0.50;97.30;;;;;;4906109;29;20823;-87
2023/11/22 10:28:35;;;;;;;3.33;3.13;;;0.40;97.30;;;;;;4913382;29;20656;-86
2023/11/22 10:31:00;;;;;;;1.57;1.47;;;0.40;97.30;;;;;;4914503;29;20387;-88
2023/11/22 10:33:26;;;;;;;2.70;2.50;;;0.50;97.30;;;;;;4899908;29;20232;-87
2023/11/22 10:35:52;;;;;;;3.63;2.33;;;0.60;97.30;;;;;;4901568;29;20668;-87
2023/11/22 10:38:19;;;;;;;1.77;1.73;;;0.60;97.30;;;;;;4903623;29;20244;-87
2023/11/22 10:40:45;;;;;;;2.80;2.20;;;0.60;97.30;;;;;;4903761;29;20531;-87
2023/11/22 10:43:12;;;;;;;2.27;2.07;;;0.70;97.30;;;;;;4917118;29;20507;-88
2023/11/22 10:45:38;;;;;;;1.40;1.30;;;0.80;97.30;;;;;;4903913;29;20424;-88
2023/11/22 10:48:05;;;;;;;4.97;2.60;;;0.90;97.30;;;;;;4895813;29;20516;-87
2023/11/22 10:50:31;;;;;;;2.93;2.20;;;1.10;97.30;;;;;;4902903;29;20460;-88
2023/11/22 10:53:00;;;;;;;1.97;1.50;;;1.30;97.30;;;;;;4891595;29;20426;-88
2023/11/22 10:55:31;;;;;;;2.63;2.43;;;1.50;97.30;;;;;;4897439;29;20443;-89
2023/11/22 10:58:02;;;;;;;5.73;2.47;;;1.60;97.30;;;;;;4915448;29;20819;-87
2023/11/22 11:00:31;;;;;;;3.60;2.70;;;1.80;97.30;;;;;;4912405;29;20467;-88
2023/11/22 11:03:07;;;;;;;3.20;3.00;;;1.80;97.30;;;;;;4899089;29;20433;-87
2023/11/22 11:05:34;;;;;;;2.07;1.93;;;1.90;97.30;;;;;;4888927;29;20421;-87
2023/11/22 11:08:10;;;;;;;5.90;3.70;;;2.00;97.30;;;;;;4897477;29;20958;-87
2023/11/22 11:10:46;;;;;;;4.93;3.40;;;2.30;97.30;;;;;;4895748;29;20432;-87
2023/11/22 11:13:13;;;;;;;2.40;2.00;;;2.30;97.30;;;;;;4892047;29;20463;-86
2023/11/22 11:15:40;;;;;;;2.30;2.10;;;2.10;97.30;;;;;;4895784;29;20715;-87
2023/11/22 11:18:12;;;;;;;1.63;1.53;;;1.90;97.30;;;;;;4910422;29;20420;-88
2023/11/22 11:20:59;;;;;;;1.57;1.47;;;1.70;97.30;;;;;;4915414;29;20466;-88
2023/11/22 11:23:25;;;;;;;5.50;1.50;;;1.50;97.30;;;;;;4920178;29;20429;-90
2023/11/22 11:25:56;;;;;;;2.50;2.30;;;1.40;97.30;;;;;;4916945;29;20420;-88
2023/11/22 11:28:26;;;;;;;4.47;2.10;;;1.30;97.30;;;;;;4912836;29;20421;-90
2023/11/22 11:30:53;;;;;;;14.83;4.13;;;1.20;97.30;;;;;;4917693;29;20448;-90
2023/11/22 11:33:33;;;;;;;10.23;3.70;;;1.10;97.30;;;;;;4920746;29;20428;-88
2023/11/22 11:36:03;;;;;;;4.07;2.50;;;1.10;97.30;;;;;;4916087;29;20413;-86
2023/11/22 11:38:34;;;;;;;9.00;2.57;;;1.10;97.30;;;;;;4893456;29;20428;-86
2023/11/22 11:41:10;;;;;;;4.00;3.00;;;1.10;97.30;;;;;;4890694;29;20521;-88
2023/11/22 11:43:47;;;;;;;2.53;2.17;;;1.10;97.30;;;;;;4899397;29;20446;-86
2023/11/22 11:46:16;;;;;;;5.40;3.03;;;1.20;97.30;;;;;;4912836;29;20510;-87
2023/11/22 11:48:43;;;;;;;3.20;1.80;;;1.20;97.30;;;;;;4891962;29;20805;-86
2023/11/22 11:51:09;;;;;;;4.13;2.23;;;1.20;97.30;;;;;;4890804;29;20471;-86
2023/11/22 11:53:35;;;;;;;1.53;1.43;;;1.20;97.30;;;;;;4891591;29;20939;-86
2023/11/22 11:56:01;;;;;;;2.30;2.10;;;1.20;97.30;;;;;;4898686;29;20263;-86
2023/11/22 11:58:27;;;;;;;3.10;2.90;;;1.10;97.30;;;;;;4915214;29;20191;-87
2023/11/22 12:00:55;;;;;;;4.10;2.40;;;1.10;97.30;;;;;;4908154;29;20484;-88
2023/11/22 12:03:21;;;;;;;3.17;2.97;;;1.00;97.30;;;;;;4911365;29;20420;-86
2023/11/22 12:05:49;;;;;;;5.07;2.97;;;1.00;97.30;;;;;;4892580;29;20425;-86
2023/11/22 12:08:18;;;;;;;1.83;1.77;;;1.10;97.30;;;;;;4898474;29;20955;-86
2023/11/22 12:10:48;;;;;;;2.70;2.50;;;1.10;97.30;;;;;;4895937;29;21014;-88
2023/11/22 12:13:16;;;;;;;2.63;2.40;;;1.10;97.30;;;;;;4901592;29;20436;-87
2023/11/22 12:15:42;;;;;;;1.93;1.83;;;1.20;97.30;;;;;;4908671;29;20460;-89
2023/11/22 12:18:08;;;;;;;5.13;2.30;;;1.20;97.30;;;;;;4904645;29;20453;-85
2023/11/22 12:20:35;;;;;;;2.43;2.23;;;1.20;97.30;;;;;;4900250;29;20204;-86
2023/11/22 12:23:01;;;;;;;1.83;1.73;;;1.10;97.30;;;;;;4914487;29;20428;-86
2023/11/22 12:25:27;;;;;;;2.67;2.47;;;1.10;97.30;;;;;;4903516;29;20799;-85
2023/11/22 12:27:56;;;;;;;1.67;1.57;;;1.10;97.30;;;;;;4896170;29;20477;-86
2023/11/22 12:30:33;;;;;;;1.87;1.77;;;1.20;97.30;;;;;;4911531;29;20416;-87
2023/11/22 12:33:07;;;;;;;7.03;1.93;;;1.10;97.30;;;;;;4914420;29;20467;-85
2023/11/22 12:35:33;;;;;;;2.43;2.23;;;1.10;97.30;;;;;;4897889;29;20442;-86
2023/11/22 12:38:06;;;;;;;2.93;2.77;;;1.00;97.30;;;;;;4914609;29;20428;-88
2023/11/22 12:40:32;;;;;;;4.93;2.53;;;1.00;97.30;;;;;;4898057;29;20645;-86
2023/11/22 12:42:59;;;;;;;2.07;1.93;;;1.00;97.30;;;;;;4897726;29;20451;-86
2023/11/22 12:45:28;;;;;;;42.17;3.90;;;1.10;97.30;;;;;;4897577;29;20437;-86
2023/11/22 12:47:55;;;;;;;3.13;2.80;;;1.10;97.30;;;;;;4914626;29;20442;-86
2023/11/22 12:50:38;;;;;;;2.33;2.13;;;1.20;97.30;;;;;;4914488;29;20425;-86
2023/11/22 12:53:10;;;;;;;1.60;1.50;;;1.30;97.30;;;;;;4914372;29;20428;-86
2023/11/22 12:55:36;;;;;;;2.73;2.53;;;1.20;97.30;;;;;;4897263;29;20439;-87
2023/11/22 12:58:03;;;;;;;2.63;2.43;;;1.10;97.30;;;;;;4904684;29;20441;-88
2023/11/22 13:00:29;;;;;;;2.63;2.43;;;1.10;97.30;;;;;;4896988;29;20563;-86
2023/11/22 13:02:58;;;;;;;2.57;2.30;;;1.10;97.30;;;;;;4897352;29;20425;-86
2023/11/22 13:05:24;;;;;;;1.83;1.73;;;1.20;97.30;;;;;;4914334;29;20428;-86
2023/11/22 13:07:50;;;;;;;1.80;1.70;;;1.20;97.30;;;;;;4897274;29;20424;-87
2023/11/22 13:10:17;;;;;;;3.40;3.20;;;1.20;97.30;;;;;;4914159;29;20574;-85
2023/11/22 13:12:45;;;;;;;3.27;3.07;;;1.20;97.30;;;;;;4896789;29;20441;-86
2023/11/22 13:15:14;;;;;;;1.80;1.70;;;1.20;97.30;;;;;;4897234;29;21115;-87
2023/11/22 13:17:40;;;;;;;2.63;2.50;;;1.20;97.30;;;;;;4901361;29;20443;-86
2023/11/22 13:20:14;;;;;;;2.40;2.20;;;1.20;97.30;;;;;;4913889;29;20823;-87
2023/11/22 13:22:42;;;;;;;12.53;1.93;;;1.20;97.30;;;;;;4911473;29;20327;-86
2023/11/22 13:25:13;;;;;;;2.37;2.17;;;1.20;97.30;;;;;;4897530;29;20466;-87
2023/11/22 13:27:38;;;;;;;2.13;1.97;;;1.10;97.30;;;;;;4891072;29;20428;-87
2023/11/22 13:30:05;;;;;;;15.20;3.20;;;1.10;97.30;;;;;;4896398;29;20786;-87
2023/11/22 13:32:31;;;;;;;3.70;1.93;;;1.10;97.30;;;;;;4913184;29;20242;-87
2023/11/22 13:34:57;;;;;;;2.43;2.23;;;1.10;97.30;;;;;;4894738;29;20943;-87
2023/11/22 13:37:23;;;;;;;3.63;3.07;;;1.10;97.30;;;;;;4899792;29;20441;-87
2023/11/22 13:39:49;;;;;;;2.43;2.27;;;1.10;97.30;;;;;;4897140;29;20429;-86
2023/11/22 13:42:14;;;;;;;2.80;2.67;;;1.10;97.30;;;;;;4897275;29;20449;-88
2023/11/22 13:44:41;;;;;;;3.10;2.90;;;1.10;97.30;;;;;;4897311;29;20190;-87
2023/11/22 13:47:07;;;;;;;2.43;2.23;;;1.20;97.30;;;;;;4899841;29;20187;-88
2023/11/22 13:49:33;;;;;;;4.13;2.60;;;1.20;97.30;;;;;;4890667;29;20437;-86
2023/11/22 13:51:59;;;;;;;3.33;3.13;;;1.20;97.30;;;;;;4900585;29;20451;-86
2023/11/22 13:54:24;;;;;;;3.53;2.90;;;1.30;97.30;;;;;;4894771;29;20437;-86
2023/11/22 13:56:50;;;;;;;5.30;2.50;;;1.30;97.30;;;;;;4890311;29;20197;-86
2023/11/22 13:59:15;;;;;;;2.83;2.63;;;1.30;97.30;;;;;;4898990;29;20189;-88
2023/11/22 14:01:42;;;;;;;1.90;1.80;;;1.20;97.30;;;;;;4891630;29;20287;-88
2023/11/22 14:04:07;;;;;;;5.60;3.30;;;1.20;97.30;;;;;;4894013;29;20189;-88
2023/11/22 14:06:33;;;;;;;6.07;3.03;;;1.20;97.30;;;;;;4897017;29;20435;-87
2023/11/22 14:08:58;;;;;;;3.20;2.93;;;1.10;97.30;;;;;;4900410;29;20640;-86
2023/11/22 14:11:24;;;;;;;2.57;2.37;;;1.00;97.30;;;;;;4898912;29;20222;-87
2023/11/22 14:13:49;;;;;;;8.43;3.07;;;1.00;97.30;;;;;;4891207;29;20664;-86
2023/11/22 14:16:15;;;;;;;1.30;1.20;;;1.00;97.30;;;;;;4915076;29;20192;-86
2023/11/22 14:18:40;;;;;;;5.23;2.80;;;1.00;97.30;;;;;;4902371;29;20196;-86
2023/11/22 14:21:06;;;;;;;3.50;2.93;;;1.00;97.30;;;;;;4902324;29;20221;-87
2023/11/22 14:23:33;;;;;;;5.23;2.47;;;0.90;97.30;;;;;;4916019;29;20569;-86
2023/11/22 14:25:58;;;;;;;4.30;2.73;;;1.00;97.30;;;;;;4900211;29;20196;-86
2023/11/22 14:28:24;;;;;;;2.33;2.13;;;1.00;97.30;;;;;;4915082;29;20420;-87
2023/11/22 14:30:54;;;;;;;2.33;2.13;;;1.10;97.30;;;;;;4912491;29;20236;-86
2023/11/22 14:33:20;;;;;;;3.20;3.00;;;1.10;97.30;;;;;;4899774;29;20204;-85
2023/11/22 14:35:45;;;;;;;2.63;2.40;;;1.10;97.30;;;;;;4895669;29;20436;-86
2023/11/22 14:38:12;;;;;;;2.83;2.63;;;1.10;97.30;;;;;;4915297;29;20778;-86
2023/11/22 14:40:39;;;;;;;2.37;2.17;;;1.10;97.30;;;;;;4900970;29;20299;-85
2023/11/22 14:43:05;;;;;;;2.40;1.73;;;1.00;97.30;;;;;;4895636;29;20421;-86
2023/11/22 14:45:32;;;;;;;1.60;1.50;;;0.90;97.30;;;;;;4914244;29;20503;-87
2023/11/22 14:47:58;;;;;;;1.90;1.80;;;0.90;97.30;;;;;;4916054;29;20428;-85
2023/11/22 14:50:27;;;;;;;2.00;1.90;;;0.80;97.30;;;;;;4899733;29;20442;-85
2023/11/22 14:52:52;;;;;;;1.53;1.50;;;0.80;97.30;;;;;;4901859;29;20767;-86
2023/11/22 14:55:23;;;;;;;4.67;2.70;;;0.80;97.30;;;;;;4899875;29;20480;-85
2023/11/22 14:57:50;;;;;;;5.50;1.60;;;0.80;97.30;;;;;;4898132;29;20189;-86
2023/11/22 15:00:17;;;;;;;3.60;3.40;;;0.80;97.30;;;;;;4903352;29;20475;-85
2023/11/22 15:02:43;;;;;;;2.20;2.00;;;0.70;97.30;;;;;;4899546;29;20472;-86
2023/11/22 15:05:09;;;;;;;1.77;1.67;;;0.70;97.30;;;;;;4899933;29;20432;-84
2023/11/22 15:07:41;;;;;;;4.50;1.83;;;0.70;97.30;;;;;;4901281;29;20586;-85
2023/11/22 15:10:08;;;;;;;1.53;1.43;;;0.80;97.30;;;;;;4899478;29;20805;-85
2023/11/22 15:12:34;;;;;;;4.77;3.10;;;0.80;97.30;;;;;;4898764;29;20800;-85
2023/11/22 15:15:00;;;;;;;1.90;1.80;;;0.80;97.30;;;;;;4898815;29;20428;-87
2023/11/22 15:17:25;;;;;;;2.27;2.07;;;0.80;97.30;;;;;;4903118;29;20437;-86
2023/11/22 15:19:51;;;;;;;2.70;1.80;;;0.80;97.30;;;;;;4914598;29;20188;-86
2023/11/22 15:22:16;;;;;;;6.23;3.93;;;0.70;97.30;;;;;;4900845;29;20211;-86
2023/11/22 15:24:42;;;;;;;1.67;1.57;;;0.70;97.30;;;;;;4900673;29;20562;-87
2023/11/22 15:27:07;;;;;;;24.67;3.50;;;0.70;97.30;;;;;;4906925;29;20185;-87
2023/11/22 15:29:33;;;;;;;2.00;1.90;;;0.60;97.30;;;;;;4899158;29;20191;-86
2023/11/22 15:31:59;;;;;;;1.83;1.73;;;0.60;97.30;;;;;;4895960;29;20212;-87
2023/11/22 15:34:25;;;;;;;3.87;3.67;;;0.60;97.30;;;;;;4914191;29;20428;-85
2023/11/22 15:36:50;;;;;;;1.60;1.50;;;0.60;97.30;;;;;;4901862;29;20207;-86
2023/11/22 15:39:17;;;;;;;2.30;2.10;;;0.60;97.30;;;;;;4900201;29;20659;-86
2023/11/22 15:41:43;;;;;;;3.20;3.00;;;0.60;97.30;;;;;;4913880;29;20212;-85
2023/11/22 15:44:09;;;;;;;1.70;1.60;;;0.60;97.30;;;;;;4900485;29;20437;-88
2023/11/22 15:46:35;;;;;;;2.17;1.40;;;0.60;97.30;;;;;;4901519;29;20447;-86
2023/11/22 15:49:00;;;;;;;1.83;1.73;;;0.60;97.30;;;;;;4900608;29;20238;-87
2023/11/22 15:51:26;;;;;;;2.27;2.13;;;0.60;97.30;;;;;;4895445;29;20216;-86
2023/11/22 15:53:52;;;;;;;2.90;2.70;;;0.60;97.30;;;;;;4911230;29;20189;-85
2023/11/22 15:56:18;;;;;;;7.57;3.47;;;0.50;97.30;;;;;;4914266;29;20671;-85
2023/11/22 15:58:46;;;;;;;2.37;2.17;;;0.50;97.30;;;;;;4896859;29;20511;-87
2023/11/22 16:01:12;;;;;;;3.73;2.53;;;0.50;97.30;;;;;;4897972;29;20232;-86
2023/11/22 16:03:39;;;;;;;5.90;2.57;;;0.50;97.30;;;;;;4900942;29;20472;-87
2023/11/22 16:06:05;;;;;;;6.27;4.20;;;0.50;97.30;;;;;;4897911;29;20439;-86
2023/11/22 16:08:31;;;;;;;2.30;1.97;;;0.50;97.30;;;;;;4914881;29;20534;-86
2023/11/22 16:10:57;;;;;;;3.50;3.30;;;0.50;97.30;;;;;;4896721;29;20528;-85
2023/11/22 16:13:26;;;;;;;3.47;3.27;;;0.50;97.30;;;;;;4905952;29;20275;-87
2023/11/22 16:15:53;;;;;;;1.70;1.60;;;0.50;97.30;;;;;;4895417;29;20437;-86
2023/11/22 16:18:22;;;;;;;3.43;3.27;;;0.50;97.30;;;;;;4893124;29;20441;-86
2023/11/22 16:20:48;;;;;;;3.47;2.67;;;0.50;97.30;;;;;;4894748;29;20524;-87
2023/11/22 16:23:14;;;;;;;6.43;2.30;;;0.50;97.30;;;;;;4896404;29;20432;-85
2023/11/22 16:25:41;;;;;;;4.53;1.77;;;0.40;97.30;;;;;;4908602;29;20204;-87
2023/11/22 16:28:07;;;;;;;2.80;2.60;;;0.40;97.30;;;;;;4893536;29;20469;-86
2023/11/22 16:30:32;;;;;;;2.47;2.27;;;0.40;97.30;;;;;;4913019;29;20854;-88
2023/11/22 16:32:58;;;;;;;1.63;1.53;;;0.40;97.30;;;;;;4893786;29;20180;-86
2023/11/22 16:35:25;;;;;;;6.67;3.20;;;0.40;97.30;;;;;;4895342;29;20622;-86
2023/11/22 16:37:50;;;;;;;3.00;2.50;;;0.40;97.30;;;;;;4897301;29;20188;-86
2023/11/22 16:40:16;;;;;;;3.57;3.37;;;0.40;97.30;;;;;;4903206;29;20511;-86
2023/11/22 16:42:43;;;;;;;4.83;4.53;;;0.40;97.30;;;;;;4896535;29;20227;-85
2023/11/22 16:45:09;;;;;;;3.60;3.40;;;0.50;97.30;;;;;;4897535;29;20185;-85
2023/11/22 16:47:34;;;;;;;1.93;1.83;;;1.10;97.30;;;;;;4897696;29;20435;-86
2023/11/22 16:50:03;;;;;;;2.27;2.07;;;0.80;97.30;;;;;;4897361;29;20900;-85
2023/11/22 16:52:28;;;;;;;4.10;2.90;;;0.60;97.30;;;;;;4899682;29;20280;-87
2023/11/22 16:54:54;;;;;;;1.73;1.63;;;0.50;97.30;;;;;;4897535;29;20935;-86
2023/11/22 16:57:20;;;;;;;2.93;2.00;;;0.50;97.30;;;;;;4897858;29;20435;-85
2023/11/22 16:59:47;;;;;;;3.83;2.60;;;0.50;97.30;;;;;;4897174;29;20189;-85
2023/11/22 17:02:12;;;;;;;2.40;2.20;;;0.50;97.30;;;;;;4896997;29;20495;-85
2023/11/22 17:04:41;;;;;;;2.00;1.90;;;0.40;97.30;;;;;;4896316;29;20425;-85
2023/11/22 17:07:08;;;;;;;20.83;3.20;;;0.40;97.30;;;;;;4904224;29;20192;-85
2023/11/22 17:09:35;;;;;;;1.83;1.73;;;0.40;97.30;;;;;;4897564;29;20421;-85
2023/11/22 17:12:00;;;;;;;1.77;1.67;;;0.40;97.30;;;;;;4897095;29;20516;-83
2023/11/22 17:14:26;;;;;;;2.40;2.20;;;0.40;97.30;;;;;;4897180;29;20421;-84
2023/11/22 17:16:51;;;;;;;1.57;1.50;;;0.40;97.30;;;;;;4897037;29;20192;-85
2023/11/22 17:19:17;;;;;;;1.40;1.30;;;0.30;97.30;;;;;;4912119;29;20176;-85
2023/11/22 17:21:42;;;;;;;8.27;3.63;;;0.30;97.30;;;;;;4896252;29;20220;-89
2023/11/22 17:24:09;;;;;;;2.70;2.50;;;0.30;97.30;;;;;;4896875;29;20177;-84
2023/11/22 17:26:35;;;;;;;3.63;3.23;;;0.30;97.30;;;;;;4896612;29;20239;-89
2023/11/22 17:29:01;;;;;;;2.33;2.13;;;0.30;97.30;;;;;;4914831;29;20416;-86
2023/11/22 17:31:26;;;;;;;1.77;1.43;;;0.30;97.30;;;;;;4914861;29;20268;-85
2023/11/22 17:33:53;;;;;;;5.60;3.10;;;0.30;97.30;;;;;;4897408;29;20192;-87
2023/11/22 17:36:18;;;;;;;1.60;1.50;;;0.30;97.30;;;;;;4899066;29;20180;-85
2023/11/22 17:38:44;;;;;;;2.00;1.83;;;0.20;97.30;;;;;;4900478;29;20424;-86
2023/11/22 17:41:10;;;;;;;1.47;1.37;;;0.20;97.30;;;;;;4898591;29;20208;-84
2023/11/22 17:43:36;;;;;;;3.03;1.93;;;0.20;97.30;;;;;;4899008;29;20192;-85
2023/11/22 17:46:01;;;;;;;4.53;1.97;;;0.20;97.30;;;;;;4897443;29;20433;-84
2023/11/22 17:48:27;;;;;;;2.67;2.30;;;0.20;97.30;;;;;;4902738;29;20188;-88
2023/11/22 17:50:54;;;;;;;2.47;2.27;;;0.30;97.30;;;;;;4902907;29;20208;-87